sensor_id;sensor_type;location;lat;lon;timestamp;P1;durP1;ratioP1;P2;durP2;ratioP2
75774;SDS011;64505;51.458;7.556;2023-07-24T00:01:56;6.13;;;2.47;;
75774;SDS011;64505;51.458;7.556;2023-07-24T00:03:57;4.97;;;2.25;;
75774;SDS011;64505;51.458;7.556;2023-07-24T00:06:01;3.80;;;2.05;;
75774;SDS011;64505;51.458;7.556;2023-07-24T00:08:02;5.28;;;2.38;;
75774;SDS011;64505;51.458;7.556;2023-07-24T00:10:04;3.55;;;2.10;;
75774;SDS011;64505;51.458;7.556;2023-07-24T00:12:06;5.78;;;2.22;;
75774;SDS011;64505;51.458;7.556;2023-07-24T00:14:08;5.13;;;2.33;;
75774;SDS011;64505;51.458;7.556;2023-07-24T00:16:09;4.75;;;1.90;;
75774;SDS011;64505;51.458;7.556;2023-07-24T00:18:11;6.95;;;2.30;;
75774;SDS011;64505;51.458;7.556;2023-07-24T00:20:12;3.80;;;2.00;;
75774;SDS011;64505;51.458;7.556;2023-07-24T00:22:14;8.43;;;2.35;;
75774;SDS011;64505;51.458;7.556;2023-07-24T00:24:15;5.20;;;2.33;;
75774;SDS011;64505;51.458;7.556;2023-07-24T00:26:17;5.40;;;2.53;;
75774;SDS011;64505;51.458;7.556;2023-07-24T00:28:18;4.82;;;2.17;;
75774;SDS011;64505;51.458;7.556;2023-07-24T00:30:20;4.40;;;2.55;;
75774;SDS011;64505;51.458;7.556;2023-07-24T00:32:21;4.57;;;2.05;;
75774;SDS011;64505;51.458;7.556;2023-07-24T00:34:23;4.45;;;1.85;;
75774;SDS011;64505;51.458;7.556;2023-07-24T00:36:27;4.10;;;2.20;;
75774;SDS011;64505;51.458;7.556;2023-07-24T00:38:29;6.18;;;2.38;;
75774;SDS011;64505;51.458;7.556;2023-07-24T00:40:30;4.13;;;2.35;;
75774;SDS011;64505;51.458;7.556;2023-07-24T00:42:32;5.70;;;2.60;;
75774;SDS011;64505;51.458;7.556;2023-07-24T00:44:33;4.35;;;2.38;;
75774;SDS011;64505;51.458;7.556;2023-07-24T00:46:35;5.85;;;2.50;;
75774;SDS011;64505;51.458;7.556;2023-07-24T00:48:37;6.10;;;2.47;;
75774;SDS011;64505;51.458;7.556;2023-07-24T00:50:40;5.80;;;2.67;;
75774;SDS011;64505;51.458;7.556;2023-07-24T00:52:43;4.60;;;2.10;;
75774;SDS011;64505;51.458;7.556;2023-07-24T00:54:45;3.50;;;2.10;;
75774;SDS011;64505;51.458;7.556;2023-07-24T00:56:47;4.57;;;2.22;;
75774;SDS011;64505;51.458;7.556;2023-07-24T00:58:49;5.28;;;2.50;;
75774;SDS011;64505;51.458;7.556;2023-07-24T01:00:50;4.90;;;2.42;;
75774;SDS011;64505;51.458;7.556;2023-07-24T01:02:53;6.78;;;2.03;;
75774;SDS011;64505;51.458;7.556;2023-07-24T01:04:55;5.78;;;2.50;;
75774;SDS011;64505;51.458;7.556;2023-07-24T01:06:57;6.05;;;2.47;;
75774;SDS011;64505;51.458;7.556;2023-07-24T01:08:58;7.40;;;2.13;;
75774;SDS011;64505;51.458;7.556;2023-07-24T01:11:02;4.35;;;2.15;;
75774;SDS011;64505;51.458;7.556;2023-07-24T01:13:13;5.85;;;3.00;;
75774;SDS011;64505;51.458;7.556;2023-07-24T01:15:23;8.88;;;2.33;;
75774;SDS011;64505;51.458;7.556;2023-07-24T01:17:31;7.93;;;2.30;;
75774;SDS011;64505;51.458;7.556;2023-07-24T01:19:39;4.88;;;2.08;;
75774;SDS011;64505;51.458;7.556;2023-07-24T01:22:01;6.22;;;2.30;;
75774;SDS011;64505;51.458;7.556;2023-07-24T01:24:23;5.50;;;1.98;;
75774;SDS011;64505;51.458;7.556;2023-07-24T01:26:31;5.32;;;2.05;;
75774;SDS011;64505;51.458;7.556;2023-07-24T01:28:33;4.20;;;2.22;;
75774;SDS011;64505;51.458;7.556;2023-07-24T01:30:35;5.30;;;2.10;;
75774;SDS011;64505;51.458;7.556;2023-07-24T01:32:36;5.53;;;2.22;;
75774;SDS011;64505;51.458;7.556;2023-07-24T01:34:39;6.88;;;1.83;;
75774;SDS011;64505;51.458;7.556;2023-07-24T01:36:40;3.55;;;2.05;;
75774;SDS011;64505;51.458;7.556;2023-07-24T01:38:42;4.43;;;2.00;;
75774;SDS011;64505;51.458;7.556;2023-07-24T01:40:44;5.47;;;2.25;;
75774;SDS011;64505;51.458;7.556;2023-07-24T01:42:46;4.05;;;1.77;;
75774;SDS011;64505;51.458;7.556;2023-07-24T01:44:51;8.35;;;2.20;;
75774;SDS011;64505;51.458;7.556;2023-07-24T01:46:53;6.00;;;2.10;;
75774;SDS011;64505;51.458;7.556;2023-07-24T01:48:55;5.07;;;2.20;;
75774;SDS011;64505;51.458;7.556;2023-07-24T01:50:57;3.60;;;2.10;;
75774;SDS011;64505;51.458;7.556;2023-07-24T01:52:58;5.13;;;2.03;;
75774;SDS011;64505;51.458;7.556;2023-07-24T01:55:00;8.40;;;2.42;;
75774;SDS011;64505;51.458;7.556;2023-07-24T01:57:01;5.22;;;1.92;;
75774;SDS011;64505;51.458;7.556;2023-07-24T01:59:03;5.32;;;1.92;;
75774;SDS011;64505;51.458;7.556;2023-07-24T02:01:04;5.85;;;2.35;;
75774;SDS011;64505;51.458;7.556;2023-07-24T02:03:06;5.28;;;1.80;;
75774;SDS011;64505;51.458;7.556;2023-07-24T02:05:08;6.57;;;2.08;;
75774;SDS011;64505;51.458;7.556;2023-07-24T02:07:10;7.03;;;2.40;;
75774;SDS011;64505;51.458;7.556;2023-07-24T02:09:11;5.15;;;2.30;;
75774;SDS011;64505;51.458;7.556;2023-07-24T02:11:13;5.82;;;2.05;;
75774;SDS011;64505;51.458;7.556;2023-07-24T02:13:14;4.45;;;2.40;;
75774;SDS011;64505;51.458;7.556;2023-07-24T02:15:15;5.22;;;2.15;;
75774;SDS011;64505;51.458;7.556;2023-07-24T02:17:17;4.75;;;2.10;;
75774;SDS011;64505;51.458;7.556;2023-07-24T02:19:19;5.38;;;2.10;;
75774;SDS011;64505;51.458;7.556;2023-07-24T02:21:21;7.65;;;2.13;;
75774;SDS011;64505;51.458;7.556;2023-07-24T02:23:22;4.68;;;2.00;;
75774;SDS011;64505;51.458;7.556;2023-07-24T02:25:24;5.00;;;2.38;;
75774;SDS011;64505;51.458;7.556;2023-07-24T02:27:30;6.88;;;1.88;;
75774;SDS011;64505;51.458;7.556;2023-07-24T02:29:35;6.20;;;2.10;;
75774;SDS011;64505;51.458;7.556;2023-07-24T02:31:37;6.63;;;1.90;;
75774;SDS011;64505;51.458;7.556;2023-07-24T02:33:38;5.05;;;2.20;;
75774;SDS011;64505;51.458;7.556;2023-07-24T02:35:40;5.60;;;2.45;;
75774;SDS011;64505;51.458;7.556;2023-07-24T02:37:42;4.22;;;2.15;;
75774;SDS011;64505;51.458;7.556;2023-07-24T02:39:45;4.10;;;2.20;;
75774;SDS011;64505;51.458;7.556;2023-07-24T02:41:47;3.88;;;2.13;;
75774;SDS011;64505;51.458;7.556;2023-07-24T02:43:50;4.75;;;2.05;;
75774;SDS011;64505;51.458;7.556;2023-07-24T02:45:51;6.00;;;2.53;;
75774;SDS011;64505;51.458;7.556;2023-07-24T02:47:53;4.00;;;2.15;;
75774;SDS011;64505;51.458;7.556;2023-07-24T02:49:54;4.70;;;2.50;;
75774;SDS011;64505;51.458;7.556;2023-07-24T02:51:56;5.43;;;2.70;;
75774;SDS011;64505;51.458;7.556;2023-07-24T02:53:57;7.03;;;2.50;;
75774;SDS011;64505;51.458;7.556;2023-07-24T02:56:00;6.50;;;2.50;;
75774;SDS011;64505;51.458;7.556;2023-07-24T02:58:02;5.40;;;2.30;;
75774;SDS011;64505;51.458;7.556;2023-07-24T03:00:04;7.57;;;2.58;;
75774;SDS011;64505;51.458;7.556;2023-07-24T03:02:06;6.47;;;2.60;;
75774;SDS011;64505;51.458;7.556;2023-07-24T03:04:08;4.32;;;2.38;;
75774;SDS011;64505;51.458;7.556;2023-07-24T03:06:09;7.38;;;2.45;;
75774;SDS011;64505;51.458;7.556;2023-07-24T03:08:11;6.53;;;2.92;;
75774;SDS011;64505;51.458;7.556;2023-07-24T03:10:12;4.55;;;2.58;;
75774;SDS011;64505;51.458;7.556;2023-07-24T03:12:13;5.07;;;2.50;;
75774;SDS011;64505;51.458;7.556;2023-07-24T03:14:15;7.07;;;2.53;;
75774;SDS011;64505;51.458;7.556;2023-07-24T03:16:16;6.45;;;2.50;;
75774;SDS011;64505;51.458;7.556;2023-07-24T03:18:20;5.63;;;2.70;;
75774;SDS011;64505;51.458;7.556;2023-07-24T03:20:22;5.93;;;2.67;;
75774;SDS011;64505;51.458;7.556;2023-07-24T03:22:23;7.07;;;3.00;;
75774;SDS011;64505;51.458;7.556;2023-07-24T03:24:25;4.80;;;2.60;;
75774;SDS011;64505;51.458;7.556;2023-07-24T03:26:26;5.28;;;2.35;;
75774;SDS011;64505;51.458;7.556;2023-07-24T03:28:28;5.40;;;2.70;;
75774;SDS011;64505;51.458;7.556;2023-07-24T03:30:30;5.65;;;2.70;;
75774;SDS011;64505;51.458;7.556;2023-07-24T03:32:31;7.15;;;3.17;;
75774;SDS011;64505;51.458;7.556;2023-07-24T03:34:33;7.53;;;2.88;;
75774;SDS011;64505;51.458;7.556;2023-07-24T03:36:34;5.68;;;2.95;;
75774;SDS011;64505;51.458;7.556;2023-07-24T03:38:36;7.45;;;2.67;;
75774;SDS011;64505;51.458;7.556;2023-07-24T03:40:38;5.78;;;2.80;;
75774;SDS011;64505;51.458;7.556;2023-07-24T03:42:39;7.90;;;3.13;;
75774;SDS011;64505;51.458;7.556;2023-07-24T03:44:41;8.38;;;3.35;;
75774;SDS011;64505;51.458;7.556;2023-07-24T03:46:42;6.00;;;2.95;;
75774;SDS011;64505;51.458;7.556;2023-07-24T03:48:44;5.63;;;2.83;;
75774;SDS011;64505;51.458;7.556;2023-07-24T03:50:45;4.78;;;2.58;;
75774;SDS011;64505;51.458;7.556;2023-07-24T03:52:47;6.93;;;2.90;;
75774;SDS011;64505;51.458;7.556;2023-07-24T03:54:48;6.45;;;2.83;;
75774;SDS011;64505;51.458;7.556;2023-07-24T03:56:49;10.43;;;3.80;;
75774;SDS011;64505;51.458;7.556;2023-07-24T03:58:51;4.60;;;2.72;;
75774;SDS011;64505;51.458;7.556;2023-07-24T04:00:53;8.50;;;3.20;;
75774;SDS011;64505;51.458;7.556;2023-07-24T04:02:55;6.60;;;3.22;;
75774;SDS011;64505;51.458;7.556;2023-07-24T04:04:56;9.20;;;3.17;;
75774;SDS011;64505;51.458;7.556;2023-07-24T04:06:58;7.82;;;3.22;;
75774;SDS011;64505;51.458;7.556;2023-07-24T04:08:59;6.05;;;3.42;;
75774;SDS011;64505;51.458;7.556;2023-07-24T04:11:01;6.45;;;3.35;;
75774;SDS011;64505;51.458;7.556;2023-07-24T04:13:02;6.07;;;3.03;;
75774;SDS011;64505;51.458;7.556;2023-07-24T04:15:04;8.55;;;3.30;;
75774;SDS011;64505;51.458;7.556;2023-07-24T04:17:06;8.25;;;3.40;;
75774;SDS011;64505;51.458;7.556;2023-07-24T04:19:08;8.77;;;3.08;;
75774;SDS011;64505;51.458;7.556;2023-07-24T04:21:10;7.45;;;2.67;;
75774;SDS011;64505;51.458;7.556;2023-07-24T04:23:11;8.25;;;3.20;;
75774;SDS011;64505;51.458;7.556;2023-07-24T04:25:13;5.72;;;3.38;;
75774;SDS011;64505;51.458;7.556;2023-07-24T04:27:14;6.07;;;3.03;;
75774;SDS011;64505;51.458;7.556;2023-07-24T04:29:16;5.45;;;2.53;;
75774;SDS011;64505;51.458;7.556;2023-07-24T04:31:17;8.73;;;3.42;;
75774;SDS011;64505;51.458;7.556;2023-07-24T04:33:19;6.47;;;3.30;;
75774;SDS011;64505;51.458;7.556;2023-07-24T04:35:20;5.35;;;2.88;;
75774;SDS011;64505;51.458;7.556;2023-07-24T04:37:21;6.95;;;3.13;;
75774;SDS011;64505;51.458;7.556;2023-07-24T04:39:23;6.55;;;2.83;;
75774;SDS011;64505;51.458;7.556;2023-07-24T04:41:24;5.93;;;2.70;;
75774;SDS011;64505;51.458;7.556;2023-07-24T04:43:26;5.47;;;3.10;;
75774;SDS011;64505;51.458;7.556;2023-07-24T04:45:27;7.63;;;2.92;;
75774;SDS011;64505;51.458;7.556;2023-07-24T04:47:29;6.03;;;3.03;;
75774;SDS011;64505;51.458;7.556;2023-07-24T04:49:31;7.88;;;3.17;;
75774;SDS011;64505;51.458;7.556;2023-07-24T04:51:33;7.22;;;3.05;;
75774;SDS011;64505;51.458;7.556;2023-07-24T04:53:36;7.30;;;2.97;;
75774;SDS011;64505;51.458;7.556;2023-07-24T04:55:38;8.13;;;3.05;;
75774;SDS011;64505;51.458;7.556;2023-07-24T04:57:39;8.00;;;3.00;;
75774;SDS011;64505;51.458;7.556;2023-07-24T04:59:41;7.13;;;3.22;;
75774;SDS011;64505;51.458;7.556;2023-07-24T05:01:44;6.95;;;2.80;;
75774;SDS011;64505;51.458;7.556;2023-07-24T05:03:46;5.70;;;3.00;;
75774;SDS011;64505;51.458;7.556;2023-07-24T05:05:48;7.45;;;2.88;;
75774;SDS011;64505;51.458;7.556;2023-07-24T05:07:50;7.03;;;2.90;;
75774;SDS011;64505;51.458;7.556;2023-07-24T05:09:52;5.90;;;3.00;;
75774;SDS011;64505;51.458;7.556;2023-07-24T05:11:53;6.40;;;3.17;;
75774;SDS011;64505;51.458;7.556;2023-07-24T05:13:55;6.03;;;3.05;;
75774;SDS011;64505;51.458;7.556;2023-07-24T05:15:56;6.78;;;3.35;;
75774;SDS011;64505;51.458;7.556;2023-07-24T05:17:58;8.05;;;2.95;;
75774;SDS011;64505;51.458;7.556;2023-07-24T05:19:59;6.30;;;2.78;;
75774;SDS011;64505;51.458;7.556;2023-07-24T05:22:01;5.50;;;2.75;;
75774;SDS011;64505;51.458;7.556;2023-07-24T05:24:02;8.30;;;2.85;;
75774;SDS011;64505;51.458;7.556;2023-07-24T05:26:04;5.85;;;3.53;;
75774;SDS011;64505;51.458;7.556;2023-07-24T05:28:05;5.72;;;2.75;;
75774;SDS011;64505;51.458;7.556;2023-07-24T05:30:07;5.63;;;2.70;;
75774;SDS011;64505;51.458;7.556;2023-07-24T05:32:09;8.23;;;3.20;;
75774;SDS011;64505;51.458;7.556;2023-07-24T05:34:10;5.70;;;2.90;;
75774;SDS011;64505;51.458;7.556;2023-07-24T05:36:11;8.27;;;3.38;;
75774;SDS011;64505;51.458;7.556;2023-07-24T05:38:13;7.82;;;4.07;;
75774;SDS011;64505;51.458;7.556;2023-07-24T05:40:14;8.43;;;3.15;;
75774;SDS011;64505;51.458;7.556;2023-07-24T05:42:16;9.35;;;3.85;;
75774;SDS011;64505;51.458;7.556;2023-07-24T05:44:17;7.90;;;3.50;;
75774;SDS011;64505;51.458;7.556;2023-07-24T05:46:19;8.25;;;3.63;;
75774;SDS011;64505;51.458;7.556;2023-07-24T05:48:20;6.38;;;3.10;;
75774;SDS011;64505;51.458;7.556;2023-07-24T05:50:22;7.22;;;3.83;;
75774;SDS011;64505;51.458;7.556;2023-07-24T05:52:23;7.22;;;3.70;;
75774;SDS011;64505;51.458;7.556;2023-07-24T05:54:25;5.75;;;3.20;;
75774;SDS011;64505;51.458;7.556;2023-07-24T05:56:26;7.05;;;3.13;;
75774;SDS011;64505;51.458;7.556;2023-07-24T05:58:28;8.15;;;3.70;;
75774;SDS011;64505;51.458;7.556;2023-07-24T06:00:30;8.25;;;4.05;;
75774;SDS011;64505;51.458;7.556;2023-07-24T06:02:31;7.22;;;3.80;;
75774;SDS011;64505;51.458;7.556;2023-07-24T06:04:33;8.55;;;3.63;;
75774;SDS011;64505;51.458;7.556;2023-07-24T06:06:35;7.88;;;3.47;;
75774;SDS011;64505;51.458;7.556;2023-07-24T06:10:43;6.38;;;3.45;;
75774;SDS011;64505;51.458;7.556;2023-07-24T06:12:47;10.45;;;3.97;;
75774;SDS011;64505;51.458;7.556;2023-07-24T06:14:49;8.60;;;3.80;;
75774;SDS011;64505;51.458;7.556;2023-07-24T06:16:50;8.27;;;3.58;;
75774;SDS011;64505;51.458;7.556;2023-07-24T06:18:52;6.57;;;3.20;;
75774;SDS011;64505;51.458;7.556;2023-07-24T06:20:53;9.10;;;3.80;;
75774;SDS011;64505;51.458;7.556;2023-07-24T06:22:55;5.82;;;2.92;;
75774;SDS011;64505;51.458;7.556;2023-07-24T06:24:56;6.85;;;3.55;;
75774;SDS011;64505;51.458;7.556;2023-07-24T06:26:58;7.32;;;3.35;;
75774;SDS011;64505;51.458;7.556;2023-07-24T06:28:59;7.85;;;3.70;;
75774;SDS011;64505;51.458;7.556;2023-07-24T06:31:01;8.25;;;3.95;;
75774;SDS011;64505;51.458;7.556;2023-07-24T06:33:02;7.75;;;4.05;;
75774;SDS011;64505;51.458;7.556;2023-07-24T06:35:04;6.97;;;4.35;;
75774;SDS011;64505;51.458;7.556;2023-07-24T06:37:06;8.10;;;3.63;;
75774;SDS011;64505;51.458;7.556;2023-07-24T06:39:22;9.77;;;3.95;;
75774;SDS011;64505;51.458;7.556;2023-07-24T06:41:24;8.93;;;3.92;;
75774;SDS011;64505;51.458;7.556;2023-07-24T06:43:26;7.45;;;3.88;;
75774;SDS011;64505;51.458;7.556;2023-07-24T06:45:28;7.45;;;3.72;;
75774;SDS011;64505;51.458;7.556;2023-07-24T06:47:30;8.05;;;4.00;;
75774;SDS011;64505;51.458;7.556;2023-07-24T06:49:31;7.07;;;4.10;;
75774;SDS011;64505;51.458;7.556;2023-07-24T06:51:33;7.97;;;4.10;;
75774;SDS011;64505;51.458;7.556;2023-07-24T06:53:34;7.75;;;3.75;;
75774;SDS011;64505;51.458;7.556;2023-07-24T06:55:36;6.82;;;3.50;;
75774;SDS011;64505;51.458;7.556;2023-07-24T06:57:37;8.88;;;3.63;;
75774;SDS011;64505;51.458;7.556;2023-07-24T06:59:39;9.35;;;4.18;;
75774;SDS011;64505;51.458;7.556;2023-07-24T07:01:41;10.10;;;4.03;;
75774;SDS011;64505;51.458;7.556;2023-07-24T07:03:42;8.02;;;3.58;;
75774;SDS011;64505;51.458;7.556;2023-07-24T07:05:44;7.82;;;3.70;;
75774;SDS011;64505;51.458;7.556;2023-07-24T07:07:45;8.63;;;4.38;;
75774;SDS011;64505;51.458;7.556;2023-07-24T07:09:46;10.00;;;4.35;;
75774;SDS011;64505;51.458;7.556;2023-07-24T07:11:48;9.35;;;4.15;;
75774;SDS011;64505;51.458;7.556;2023-07-24T07:13:49;8.85;;;4.05;;
75774;SDS011;64505;51.458;7.556;2023-07-24T07:15:51;8.52;;;4.20;;
75774;SDS011;64505;51.458;7.556;2023-07-24T07:17:52;8.35;;;4.22;;
75774;SDS011;64505;51.458;7.556;2023-07-24T07:19:54;7.63;;;4.03;;
75774;SDS011;64505;51.458;7.556;2023-07-24T07:21:57;7.72;;;3.67;;
75774;SDS011;64505;51.458;7.556;2023-07-24T07:23:59;9.10;;;3.97;;
75774;SDS011;64505;51.458;7.556;2023-07-24T07:26:00;8.15;;;4.10;;
75774;SDS011;64505;51.458;7.556;2023-07-24T07:28:01;7.03;;;3.95;;
75774;SDS011;64505;51.458;7.556;2023-07-24T07:30:03;7.00;;;3.80;;
75774;SDS011;64505;51.458;7.556;2023-07-24T07:32:05;6.88;;;3.60;;
75774;SDS011;64505;51.458;7.556;2023-07-24T07:34:07;7.60;;;3.85;;
75774;SDS011;64505;51.458;7.556;2023-07-24T07:36:09;7.50;;;3.83;;
75774;SDS011;64505;51.458;7.556;2023-07-24T07:38:10;8.88;;;4.22;;
75774;SDS011;64505;51.458;7.556;2023-07-24T07:40:12;6.75;;;3.80;;
75774;SDS011;64505;51.458;7.556;2023-07-24T07:42:13;8.80;;;3.70;;
75774;SDS011;64505;51.458;7.556;2023-07-24T07:44:19;7.45;;;4.43;;
75774;SDS011;64505;51.458;7.556;2023-07-24T07:46:20;7.43;;;4.10;;
75774;SDS011;64505;51.458;7.556;2023-07-24T07:48:22;6.63;;;4.18;;
75774;SDS011;64505;51.458;7.556;2023-07-24T07:50:23;7.15;;;3.95;;
75774;SDS011;64505;51.458;7.556;2023-07-24T07:52:25;7.18;;;3.70;;
75774;SDS011;64505;51.458;7.556;2023-07-24T07:54:26;6.00;;;3.40;;
75774;SDS011;64505;51.458;7.556;2023-07-24T07:56:28;7.40;;;4.40;;
75774;SDS011;64505;51.458;7.556;2023-07-24T07:58:32;9.30;;;4.28;;
75774;SDS011;64505;51.458;7.556;2023-07-24T08:00:34;6.78;;;3.85;;
75774;SDS011;64505;51.458;7.556;2023-07-24T08:02:35;7.82;;;3.83;;
75774;SDS011;64505;51.458;7.556;2023-07-24T08:04:40;8.77;;;4.18;;
75774;SDS011;64505;51.458;7.556;2023-07-24T08:06:42;7.22;;;4.03;;
75774;SDS011;64505;51.458;7.556;2023-07-24T08:08:43;6.60;;;4.22;;
75774;SDS011;64505;51.458;7.556;2023-07-24T08:10:45;5.93;;;3.67;;
75774;SDS011;64505;51.458;7.556;2023-07-24T08:12:46;6.18;;;3.90;;
75774;SDS011;64505;51.458;7.556;2023-07-24T08:14:48;9.82;;;3.80;;
75774;SDS011;64505;51.458;7.556;2023-07-24T08:16:49;6.97;;;3.83;;
75774;SDS011;64505;51.458;7.556;2023-07-24T08:18:51;6.28;;;4.07;;
75774;SDS011;64505;51.458;7.556;2023-07-24T08:20:53;6.78;;;3.80;;
75774;SDS011;64505;51.458;7.556;2023-07-24T08:22:54;7.28;;;3.67;;
75774;SDS011;64505;51.458;7.556;2023-07-24T08:24:56;7.35;;;3.50;;
75774;SDS011;64505;51.458;7.556;2023-07-24T08:26:57;8.75;;;3.92;;
75774;SDS011;64505;51.458;7.556;2023-07-24T08:28:59;6.68;;;3.50;;
75774;SDS011;64505;51.458;7.556;2023-07-24T08:31:00;6.38;;;3.22;;
75774;SDS011;64505;51.458;7.556;2023-07-24T08:33:07;5.95;;;3.10;;
75774;SDS011;64505;51.458;7.556;2023-07-24T08:35:09;7.72;;;3.58;;
75774;SDS011;64505;51.458;7.556;2023-07-24T08:37:13;7.38;;;3.25;;
75774;SDS011;64505;51.458;7.556;2023-07-24T08:39:15;5.32;;;2.97;;
75774;SDS011;64505;51.458;7.556;2023-07-24T08:41:16;9.25;;;4.20;;
75774;SDS011;64505;51.458;7.556;2023-07-24T08:43:18;6.70;;;3.40;;
75774;SDS011;64505;51.458;7.556;2023-07-24T08:45:22;5.93;;;3.10;;
75774;SDS011;64505;51.458;7.556;2023-07-24T08:47:24;6.25;;;3.05;;
75774;SDS011;64505;51.458;7.556;2023-07-24T08:49:26;5.85;;;3.00;;
75774;SDS011;64505;51.458;7.556;2023-07-24T08:51:30;5.85;;;2.92;;
75774;SDS011;64505;51.458;7.556;2023-07-24T08:53:33;6.60;;;2.97;;
75774;SDS011;64505;51.458;7.556;2023-07-24T08:55:37;5.75;;;2.70;;
75774;SDS011;64505;51.458;7.556;2023-07-24T08:57:40;4.65;;;2.72;;
75774;SDS011;64505;51.458;7.556;2023-07-24T08:59:41;8.07;;;3.05;;
75774;SDS011;64505;51.458;7.556;2023-07-24T09:01:43;8.40;;;2.80;;
75774;SDS011;64505;51.458;7.556;2023-07-24T09:03:45;5.28;;;2.90;;
75774;SDS011;64505;51.458;7.556;2023-07-24T09:05:48;7.28;;;3.03;;
75774;SDS011;64505;51.458;7.556;2023-07-24T09:07:49;5.88;;;2.83;;
75774;SDS011;64505;51.458;7.556;2023-07-24T09:09:51;5.18;;;3.10;;
75774;SDS011;64505;51.458;7.556;2023-07-24T09:11:54;8.40;;;3.15;;
75774;SDS011;64505;51.458;7.556;2023-07-24T09:13:55;5.93;;;2.88;;
75774;SDS011;64505;51.458;7.556;2023-07-24T09:15:57;6.97;;;2.67;;
75774;SDS011;64505;51.458;7.556;2023-07-24T09:18:00;7.13;;;3.03;;
75774;SDS011;64505;51.458;7.556;2023-07-24T09:20:01;5.88;;;2.88;;
75774;SDS011;64505;51.458;7.556;2023-07-24T09:24:13;6.75;;;2.75;;
75774;SDS011;64505;51.458;7.556;2023-07-24T09:26:16;4.82;;;2.60;;
75774;SDS011;64505;51.458;7.556;2023-07-24T09:28:17;5.35;;;2.70;;
75774;SDS011;64505;51.458;7.556;2023-07-24T09:30:19;5.00;;;2.40;;
75774;SDS011;64505;51.458;7.556;2023-07-24T09:32:25;5.15;;;2.97;;
75774;SDS011;64505;51.458;7.556;2023-07-24T09:34:28;4.93;;;2.45;;
75774;SDS011;64505;51.458;7.556;2023-07-24T09:36:39;5.78;;;2.72;;
75774;SDS011;64505;51.458;7.556;2023-07-24T09:38:40;5.95;;;3.10;;
75774;SDS011;64505;51.458;7.556;2023-07-24T09:40:45;5.53;;;2.75;;
75774;SDS011;64505;51.458;7.556;2023-07-24T09:42:48;5.22;;;2.83;;
75774;SDS011;64505;51.458;7.556;2023-07-24T09:45:09;5.43;;;2.67;;
75774;SDS011;64505;51.458;7.556;2023-07-24T09:47:11;4.55;;;2.63;;
75774;SDS011;64505;51.458;7.556;2023-07-24T09:49:32;4.43;;;2.42;;
75774;SDS011;64505;51.458;7.556;2023-07-24T09:51:34;6.90;;;2.70;;
75774;SDS011;64505;51.458;7.556;2023-07-24T09:58:03;4.78;;;2.70;;
75774;SDS011;64505;51.458;7.556;2023-07-24T10:00:06;6.45;;;3.65;;
75774;SDS011;64505;51.458;7.556;2023-07-24T10:02:09;5.00;;;2.63;;
75774;SDS011;64505;51.458;7.556;2023-07-24T10:04:12;6.13;;;2.75;;
75774;SDS011;64505;51.458;7.556;2023-07-24T10:06:16;6.57;;;3.25;;
75774;SDS011;64505;51.458;7.556;2023-07-24T10:08:18;4.80;;;2.65;;
75774;SDS011;64505;51.458;7.556;2023-07-24T10:10:20;4.53;;;2.30;;
75774;SDS011;64505;51.458;7.556;2023-07-24T10:12:22;4.18;;;2.40;;
75774;SDS011;64505;51.458;7.556;2023-07-24T10:14:24;4.85;;;2.55;;
75774;SDS011;64505;51.458;7.556;2023-07-24T10:16:27;4.65;;;2.53;;
75774;SDS011;64505;51.458;7.556;2023-07-24T10:18:28;5.68;;;3.08;;
75774;SDS011;64505;51.458;7.556;2023-07-24T10:20:37;5.07;;;3.15;;
75774;SDS011;64505;51.458;7.556;2023-07-24T10:22:42;5.45;;;3.40;;
75774;SDS011;64505;51.458;7.556;2023-07-24T10:24:45;7.93;;;3.75;;
75774;SDS011;64505;51.458;7.556;2023-07-24T10:26:47;5.97;;;3.53;;
75774;SDS011;64505;51.458;7.556;2023-07-24T10:28:48;5.88;;;3.08;;
75774;SDS011;64505;51.458;7.556;2023-07-24T10:30:54;7.15;;;3.58;;
75774;SDS011;64505;51.458;7.556;2023-07-24T10:33:07;6.50;;;4.07;;
75774;SDS011;64505;51.458;7.556;2023-07-24T10:35:11;7.22;;;3.72;;
75774;SDS011;64505;51.458;7.556;2023-07-24T10:37:13;9.18;;;3.90;;
75774;SDS011;64505;51.458;7.556;2023-07-24T10:39:15;7.68;;;3.47;;
75774;SDS011;64505;51.458;7.556;2023-07-24T10:41:17;6.90;;;3.45;;
75774;SDS011;64505;51.458;7.556;2023-07-24T10:43:19;6.30;;;3.42;;
75774;SDS011;64505;51.458;7.556;2023-07-24T10:45:21;6.90;;;3.15;;
75774;SDS011;64505;51.458;7.556;2023-07-24T10:47:23;4.93;;;3.05;;
75774;SDS011;64505;51.458;7.556;2023-07-24T10:49:24;7.13;;;3.47;;
75774;SDS011;64505;51.458;7.556;2023-07-24T10:51:26;6.28;;;3.50;;
75774;SDS011;64505;51.458;7.556;2023-07-24T10:53:27;5.97;;;3.70;;
75774;SDS011;64505;51.458;7.556;2023-07-24T10:55:29;5.63;;;3.58;;
75774;SDS011;64505;51.458;7.556;2023-07-24T10:57:31;5.88;;;3.30;;
75774;SDS011;64505;51.458;7.556;2023-07-24T10:59:39;5.57;;;3.25;;
75774;SDS011;64505;51.458;7.556;2023-07-24T11:01:41;6.45;;;3.42;;
75774;SDS011;64505;51.458;7.556;2023-07-24T11:03:43;5.88;;;3.30;;
75774;SDS011;64505;51.458;7.556;2023-07-24T11:05:46;6.22;;;3.50;;
75774;SDS011;64505;51.458;7.556;2023-07-24T11:07:48;7.10;;;3.00;;
75774;SDS011;64505;51.458;7.556;2023-07-24T11:09:50;5.40;;;3.05;;
75774;SDS011;64505;51.458;7.556;2023-07-24T11:11:52;5.88;;;3.25;;
75774;SDS011;64505;51.458;7.556;2023-07-24T11:13:54;5.00;;;3.30;;
75774;SDS011;64505;51.458;7.556;2023-07-24T11:15:55;7.03;;;3.60;;
75774;SDS011;64505;51.458;7.556;2023-07-24T11:17:57;6.80;;;2.85;;
75774;SDS011;64505;51.458;7.556;2023-07-24T11:20:05;5.63;;;3.15;;
75774;SDS011;64505;51.458;7.556;2023-07-24T11:22:21;5.22;;;2.90;;
75774;SDS011;64505;51.458;7.556;2023-07-24T11:24:23;6.53;;;3.40;;
75774;SDS011;64505;51.458;7.556;2023-07-24T11:26:25;5.78;;;3.55;;
75774;SDS011;64505;51.458;7.556;2023-07-24T11:28:27;4.68;;;3.03;;
75774;SDS011;64505;51.458;7.556;2023-07-24T11:30:28;7.00;;;3.60;;
75774;SDS011;64505;51.458;7.556;2023-07-24T11:32:30;6.05;;;3.28;;
75774;SDS011;64505;51.458;7.556;2023-07-24T11:34:31;5.80;;;3.38;;
75774;SDS011;64505;51.458;7.556;2023-07-24T11:36:34;6.35;;;3.85;;
75774;SDS011;64505;51.458;7.556;2023-07-24T11:38:35;7.20;;;3.85;;
75774;SDS011;64505;51.458;7.556;2023-07-24T11:40:40;5.00;;;3.05;;
75774;SDS011;64505;51.458;7.556;2023-07-24T11:42:43;5.88;;;3.17;;
75774;SDS011;64505;51.458;7.556;2023-07-24T11:44:45;6.25;;;3.08;;
75774;SDS011;64505;51.458;7.556;2023-07-24T11:46:47;8.13;;;3.28;;
75774;SDS011;64505;51.458;7.556;2023-07-24T11:48:48;5.57;;;3.15;;
75774;SDS011;64505;51.458;7.556;2023-07-24T11:50:51;5.72;;;3.15;;
75774;SDS011;64505;51.458;7.556;2023-07-24T11:52:58;4.82;;;2.90;;
75774;SDS011;64505;51.458;7.556;2023-07-24T11:54:59;5.82;;;2.92;;
75774;SDS011;64505;51.458;7.556;2023-07-24T11:57:14;5.70;;;2.72;;
75774;SDS011;64505;51.458;7.556;2023-07-24T11:59:17;5.10;;;3.13;;
75774;SDS011;64505;51.458;7.556;2023-07-24T12:01:19;5.03;;;2.55;;
75774;SDS011;64505;51.458;7.556;2023-07-24T12:03:21;4.97;;;2.50;;
75774;SDS011;64505;51.458;7.556;2023-07-24T12:05:24;5.57;;;3.00;;
75774;SDS011;64505;51.458;7.556;2023-07-24T12:07:32;6.25;;;3.22;;
75774;SDS011;64505;51.458;7.556;2023-07-24T12:09:35;5.85;;;3.00;;
75774;SDS011;64505;51.458;7.556;2023-07-24T12:11:39;5.65;;;3.28;;
75774;SDS011;64505;51.458;7.556;2023-07-24T12:13:46;6.13;;;3.33;;
75774;SDS011;64505;51.458;7.556;2023-07-24T12:15:48;6.57;;;3.65;;
75774;SDS011;64505;51.458;7.556;2023-07-24T12:17:49;5.95;;;3.00;;
75774;SDS011;64505;51.458;7.556;2023-07-24T12:19:51;6.32;;;3.00;;
75774;SDS011;64505;51.458;7.556;2023-07-24T12:21:52;11.15;;;3.65;;
75774;SDS011;64505;51.458;7.556;2023-07-24T12:23:54;5.60;;;3.10;;
75774;SDS011;64505;51.458;7.556;2023-07-24T12:25:55;8.65;;;3.30;;
75774;SDS011;64505;51.458;7.556;2023-07-24T12:27:57;9.23;;;3.28;;